createdAt,value
2019-05-15T00:01:08.690Z,9.80
2019-05-15T00:03:40.304Z,9.70
2019-05-15T00:06:09.408Z,9.60
2019-05-15T00:08:38.812Z,9.50
2019-05-15T00:11:08.380Z,9.50
2019-05-15T00:13:38.898Z,9.50
2019-05-15T00:16:09.400Z,9.60
2019-05-15T00:18:39.127Z,9.70
2019-05-15T00:21:09.159Z,9.80
2019-05-15T00:23:38.972Z,9.70
2019-05-15T00:26:09.300Z,9.80
2019-05-15T00:28:39.010Z,9.90
2019-05-15T00:31:08.979Z,10.00
2019-05-15T00:33:39.345Z,10.00
2019-05-15T00:36:08.842Z,10.00
2019-05-15T00:38:39.009Z,9.90
2019-05-15T00:41:09.368Z,9.80
2019-05-15T00:43:41.563Z,9.80
2019-05-15T00:46:10.441Z,9.60
2019-05-15T00:48:39.803Z,9.50
2019-05-15T00:51:08.954Z,9.60
2019-05-15T00:53:38.946Z,9.70
2019-05-15T00:56:08.828Z,9.80
2019-05-15T00:58:39.922Z,9.70
2019-05-15T01:01:08.549Z,9.50
2019-05-15T01:03:38.718Z,9.40
2019-05-15T01:06:08.391Z,9.20
2019-05-15T01:08:39.333Z,9.20
2019-05-15T01:11:09.084Z,9.20
2019-05-15T01:13:38.801Z,9.40
2019-05-15T01:16:09.113Z,9.40
2019-05-15T01:18:38.760Z,9.50
2019-05-15T01:21:10.839Z,9.60
2019-05-15T01:23:39.683Z,9.70
2019-05-15T01:26:10.029Z,9.60
2019-05-15T01:28:41.929Z,9.50
2019-05-15T01:31:10.980Z,9.50
2019-05-15T01:33:42.637Z,9.40
2019-05-15T01:36:11.528Z,9.40
2019-05-15T01:38:48.829Z,9.60
2019-05-15T01:41:18.902Z,9.60
2019-05-15T01:43:49.006Z,9.60
2019-05-15T01:46:19.067Z,9.60
2019-05-15T01:48:49.326Z,9.70
2019-05-15T01:51:18.553Z,9.70
2019-05-15T01:53:48.036Z,9.80
2019-05-15T01:56:18.743Z,9.70
2019-05-15T01:58:48.731Z,9.60
2019-05-15T02:01:19.198Z,9.50
2019-05-15T02:03:49.247Z,9.50
2019-05-15T02:06:19.010Z,9.50
2019-05-15T02:08:49.662Z,9.50
2019-05-15T02:11:18.376Z,9.50
2019-05-15T02:13:48.010Z,9.50
2019-05-15T02:16:18.994Z,9.60
2019-05-15T02:18:48.874Z,9.70
2019-05-15T02:21:18.248Z,9.70
2019-05-15T02:23:50.785Z,9.60
2019-05-15T02:26:19.433Z,9.60
2019-05-15T02:28:48.773Z,9.70
2019-05-15T02:31:19.682Z,9.70
2019-05-15T02:33:49.766Z,9.60
2019-05-15T02:36:20.459Z,9.50
2019-05-15T02:38:48.851Z,9.40
2019-05-15T02:41:19.500Z,9.40
2019-05-15T02:43:49.985Z,9.50
2019-05-15T02:46:19.423Z,9.70
2019-05-15T02:48:49.080Z,9.70
2019-05-15T02:51:19.379Z,9.70
2019-05-15T02:53:50.179Z,9.80
2019-05-15T02:56:20.277Z,9.90
2019-05-15T02:58:49.403Z,10.00
2019-05-15T03:01:18.904Z,10.10
2019-05-15T03:03:49.682Z,10.00
2019-05-15T03:06:19.376Z,9.90
2019-05-15T03:08:49.697Z,9.90
2019-05-15T03:11:19.179Z,9.90
2019-05-15T03:13:50.425Z,9.90
2019-05-15T03:16:19.356Z,10.00
2019-05-15T03:18:50.453Z,10.00
2019-05-15T03:21:19.065Z,10.10
2019-05-15T03:23:50.709Z,10.10
2019-05-15T03:26:19.802Z,10.10
2019-05-15T03:28:49.566Z,10.10
2019-05-15T03:31:41.597Z,10.00
2019-05-15T03:33:54.354Z,10.10
2019-05-15T03:36:23.473Z,10.10
2019-05-15T03:38:50.091Z,10.10
2019-05-15T03:41:19.657Z,10.20
2019-05-15T03:43:49.638Z,10.30
2019-05-15T03:46:19.996Z,10.20
2019-05-15T03:48:52.312Z,10.20
2019-05-15T03:51:20.960Z,10.10
2019-05-15T03:53:49.995Z,10.10
2019-05-15T03:56:19.293Z,10.10
2019-05-15T03:58:49.348Z,10.10
2019-05-15T04:01:29.767Z,10.20
2019-05-15T04:03:49.734Z,10.40
2019-05-15T04:06:19.506Z,10.50
2019-05-15T04:08:49.588Z,10.60
2019-05-15T04:11:20.257Z,10.60
2019-05-15T04:13:50.154Z,10.70
2019-05-15T04:16:19.365Z,10.60
2019-05-15T04:18:49.061Z,10.60
2019-05-15T04:21:20.021Z,10.60
2019-05-15T04:23:49.943Z,10.60
2019-05-15T04:26:19.684Z,10.60
2019-05-15T04:28:49.403Z,10.70
2019-05-15T04:31:19.367Z,10.70
2019-05-15T04:33:49.344Z,10.70
2019-05-15T04:36:19.228Z,10.60
2019-05-15T04:38:49.843Z,10.60
2019-05-15T04:41:19.739Z,10.70
2019-05-15T04:43:49.571Z,10.80
2019-05-15T04:46:19.799Z,10.90
2019-05-15T04:48:50.193Z,11.00
2019-05-15T04:51:22.144Z,11.00
2019-05-15T04:53:50.805Z,11.10
2019-05-15T04:56:23.932Z,11.00
2019-05-15T04:58:52.747Z,11.00
2019-05-15T05:01:21.506Z,11.00
2019-05-15T05:03:50.309Z,10.90
2019-05-15T05:06:19.711Z,10.90
2019-05-15T05:08:49.271Z,10.90
2019-05-15T05:11:19.804Z,11.00
2019-05-15T05:13:48.634Z,11.10
2019-05-15T05:16:19.112Z,11.30
2019-05-15T05:18:48.802Z,11.30
2019-05-15T05:21:18.373Z,11.40
2019-05-15T05:23:48.365Z,11.40
2019-05-15T05:26:18.493Z,11.50
2019-05-15T05:28:48.811Z,11.50
2019-05-15T05:31:19.131Z,11.50
2019-05-15T05:33:48.766Z,11.50
2019-05-15T05:36:18.544Z,11.40
2019-05-15T05:38:49.404Z,11.20
2019-05-15T05:41:18.956Z,11.30
2019-05-15T05:43:48.736Z,11.50
2019-05-15T05:46:18.374Z,11.50
2019-05-15T05:48:48.996Z,11.60
2019-05-15T05:51:19.089Z,11.60
2019-05-15T05:53:48.208Z,11.70
2019-05-15T05:56:18.102Z,11.80
2019-05-15T05:58:49.884Z,11.70
2019-05-15T06:01:18.909Z,11.80
2019-05-15T06:03:49.078Z,11.80
2019-05-15T06:06:18.728Z,11.90
2019-05-15T06:08:48.028Z,11.70
2019-05-15T06:11:18.347Z,11.70
2019-05-15T06:13:52.165Z,11.60
2019-05-15T06:16:18.957Z,11.60
2019-05-15T06:18:49.186Z,11.60
2019-05-15T06:21:18.073Z,11.60
2019-05-15T06:23:54.775Z,11.60
2019-05-15T06:26:19.614Z,11.50
2019-05-15T06:28:48.978Z,11.50
2019-05-15T06:31:18.974Z,11.30
2019-05-15T06:33:49.030Z,11.30
2019-05-15T06:36:18.212Z,11.30
2019-05-15T06:38:48.382Z,11.30
2019-05-15T06:41:18.105Z,11.30
2019-05-15T06:43:48.363Z,11.30
2019-05-15T06:46:18.781Z,11.40
2019-05-15T06:48:48.651Z,11.50
2019-05-15T06:51:18.221Z,11.60
2019-05-15T06:53:49.146Z,11.60
2019-05-15T06:56:18.791Z,11.70
2019-05-15T06:58:48.696Z,11.80
2019-05-15T07:01:21.214Z,11.80
2019-05-15T07:03:51.030Z,11.90
2019-05-15T07:06:19.863Z,12.00
2019-05-15T07:08:49.497Z,12.00
2019-05-15T07:11:19.268Z,12.00
2019-05-15T07:13:48.687Z,12.00
2019-05-15T07:16:18.279Z,12.00
2019-05-15T07:18:48.508Z,12.00
2019-05-15T07:21:20.467Z,11.80
2019-05-15T07:23:49.811Z,11.70
2019-05-15T07:26:18.733Z,11.80
2019-05-15T07:28:48.600Z,11.80
2019-05-15T07:31:18.059Z,11.80
2019-05-15T07:33:59.693Z,11.80
2019-05-15T07:36:24.387Z,11.70
2019-05-15T07:38:55.078Z,11.70
2019-05-15T07:41:24.092Z,11.50
2019-05-15T07:43:52.959Z,11.30
2019-05-15T07:46:25.104Z,11.30
2019-05-15T07:48:54.163Z,11.30
2019-05-15T07:51:23.221Z,11.30
2019-05-15T07:53:52.307Z,11.40
2019-05-15T07:56:21.209Z,11.20
2019-05-15T07:58:52.896Z,11.30
2019-05-15T08:01:24.274Z,11.30
2019-05-15T08:04:49.444Z,11.40
2019-05-15T08:06:52.409Z,11.40
2019-05-15T08:12:22.114Z,11.70
2019-05-15T08:15:11.825Z,11.80
2019-05-15T08:18:08.781Z,11.90
2019-05-15T08:20:34.063Z,11.80
2019-05-15T08:23:08.412Z,11.80
2019-05-15T08:25:38.780Z,11.60
2019-05-15T08:28:08.809Z,11.70
2019-05-15T08:30:38.746Z,11.60
2019-05-15T08:33:22.589Z,11.50
2019-05-15T08:35:52.135Z,11.50
2019-05-15T08:38:23.924Z,11.50
2019-05-15T08:40:52.785Z,11.50
2019-05-15T08:43:21.841Z,11.50
2019-05-15T08:45:50.619Z,11.40
2019-05-15T08:48:19.597Z,11.50
2019-05-15T08:50:57.936Z,11.50
2019-05-15T08:53:28.459Z,11.50
2019-05-15T08:55:58.828Z,11.40
2019-05-15T08:58:29.104Z,11.50
2019-05-15T09:00:59.710Z,11.50
2019-05-15T09:03:28.847Z,11.30
2019-05-15T09:06:05.285Z,11.10
2019-05-15T09:08:38.731Z,11.00
2019-05-15T09:11:19.017Z,11.00
2019-05-15T09:13:52.772Z,11.10
2019-05-15T09:16:28.016Z,11.10
2019-05-15T09:19:01.666Z,11.30
2019-05-15T09:21:32.447Z,11.20
2019-05-15T09:24:09.361Z,11.00
2019-05-15T09:26:40.409Z,11.10
2019-05-15T09:29:29.942Z,11.10
2019-05-15T09:32:05.092Z,11.10
2019-05-15T09:34:50.480Z,11.10
2019-05-15T09:37:19.667Z,11.10
2019-05-15T09:40:01.305Z,11.10
2019-05-15T09:42:38.609Z,10.90
2019-05-15T09:45:17.993Z,10.90
2019-05-15T09:47:51.175Z,10.90
2019-05-15T09:50:43.814Z,10.90
2019-05-15T09:53:23.572Z,11.00
2019-05-15T09:55:59.984Z,11.10
2019-05-15T09:58:37.922Z,11.10
2019-05-15T10:01:12.731Z,11.10
2019-05-15T10:03:44.390Z,11.00
2019-05-15T10:06:30.503Z,11.00
2019-05-15T10:08:59.374Z,11.30
2019-05-15T10:11:30.008Z,11.40
2019-05-15T10:14:09.959Z,11.40
2019-05-15T10:16:38.828Z,11.40
2019-05-15T10:19:08.966Z,11.50
2019-05-15T10:21:40.026Z,11.50
2019-05-15T10:24:09.484Z,11.60
2019-05-15T10:26:44.916Z,11.70
2019-05-15T10:29:16.962Z,11.70
2019-05-15T10:31:51.865Z,11.70
2019-05-15T10:34:21.242Z,11.60
2019-05-15T10:36:50.089Z,11.50
2019-05-15T10:39:29.218Z,11.60
2019-05-15T10:41:59.826Z,11.70
2019-05-15T10:44:39.741Z,11.70
2019-05-15T10:47:08.903Z,11.90
2019-05-15T10:49:39.021Z,12.10
2019-05-15T10:52:17.858Z,12.30
2019-05-15T10:54:46.246Z,12.40
2019-05-15T10:57:43.766Z,12.40
2019-05-15T11:00:13.977Z,12.50
2019-05-15T11:02:42.731Z,12.70
2019-05-15T11:05:12.455Z,12.70
2019-05-15T11:07:41.483Z,12.90
2019-05-15T11:10:14.085Z,12.80
2019-05-15T11:12:44.548Z,12.70
2019-05-15T11:15:13.702Z,12.90
2019-05-15T11:17:48.515Z,13.00
2019-05-15T11:20:18.767Z,13.30
2019-05-15T11:22:49.893Z,13.40
2019-05-15T11:25:24.289Z,13.50
2019-05-15T11:28:12.622Z,13.40
2019-05-15T11:30:55.150Z,13.40
2019-05-15T11:33:42.391Z,13.60
2019-05-15T11:36:18.348Z,13.70
2019-05-15T11:40:21.992Z,13.30
2019-05-15T11:41:19.675Z,13.10
2019-05-15T11:44:03.318Z,13.10
2019-05-15T11:46:44.559Z,13.10
2019-05-15T11:49:49.372Z,13.30
2019-05-15T11:55:16.057Z,13.60
2019-05-15T11:57:55.840Z,13.90
2019-05-15T12:00:27.183Z,13.90
2019-05-15T12:03:18.767Z,13.90
2019-05-15T12:05:28.659Z,14.20
2019-05-15T12:08:02.889Z,14.50
2019-05-15T12:11:33.318Z,14.70
2019-05-15T12:14:14.714Z,14.90
2019-05-15T12:17:11.442Z,15.00
2019-05-15T12:19:33.677Z,15.00
2019-05-15T12:22:06.569Z,15.20
2019-05-15T12:24:40.263Z,15.00
2019-05-15T12:27:15.177Z,14.60
2019-05-15T12:29:39.487Z,14.60
2019-05-15T12:32:25.212Z,14.60
2019-05-15T12:34:39.071Z,14.30
2019-05-15T12:37:09.778Z,14.40
2019-05-15T12:39:40.869Z,15.10
2019-05-15T13:00:22.688Z,16.30
2019-05-15T13:02:59.617Z,16.70
2019-05-15T13:05:29.760Z,16.50
2019-05-15T13:07:59.864Z,16.40
2019-05-15T13:10:31.588Z,16.20
2019-05-15T13:13:05.086Z,15.80
2019-05-15T13:15:30.965Z,15.40
2019-05-15T13:18:22.965Z,15.20
2019-05-15T13:20:41.216Z,15.00
2019-05-15T13:23:10.239Z,15.30
2019-05-15T13:25:39.773Z,15.50
2019-05-15T13:28:09.119Z,15.50
2019-05-15T13:30:41.318Z,15.70
2019-05-15T13:33:10.619Z,15.90
2019-05-15T13:35:39.518Z,16.60
2019-05-15T13:38:09.966Z,17.30
2019-05-15T13:40:42.139Z,17.80
2019-05-15T13:43:10.167Z,18.20
2019-05-15T13:45:39.103Z,18.70
2019-05-15T13:48:08.935Z,19.10
2019-05-15T13:50:41.038Z,19.50
2019-05-15T13:53:11.136Z,20.50
2019-05-15T13:55:43.216Z,21.20
2019-05-15T13:58:11.868Z,20.50
2019-05-15T14:00:40.669Z,20.40
2019-05-15T14:03:09.529Z,20.60
2019-05-15T14:05:41.181Z,19.70
2019-05-15T14:08:12.760Z,19.50
2019-05-15T14:10:41.421Z,20.40
2019-05-15T14:13:10.181Z,20.40
2019-05-15T14:15:39.386Z,21.10
2019-05-15T14:18:08.710Z,21.80
2019-05-15T14:20:48.993Z,22.40
2019-05-15T14:23:13.978Z,23.80
2019-05-15T14:25:44.261Z,24.20
2019-05-15T14:28:13.156Z,23.80
2019-05-15T14:30:41.907Z,23.00
2019-05-15T14:33:10.590Z,22.50
2019-05-15T14:35:39.276Z,23.20
2019-05-15T14:38:10.396Z,24.60
2019-05-15T14:40:38.443Z,25.90
2019-05-15T14:43:08.951Z,25.20
2019-05-15T14:45:38.883Z,25.20
2019-05-15T14:48:08.805Z,26.00
2019-05-15T14:50:38.481Z,27.30
2019-05-15T14:53:09.313Z,25.60
2019-05-15T14:55:43.047Z,25.60
2019-05-15T14:58:08.299Z,25.70
2019-05-15T15:00:41.148Z,26.00
2019-05-15T15:03:09.769Z,25.30
2019-05-15T15:05:38.784Z,25.50
2019-05-15T15:08:18.416Z,25.70
2019-05-15T15:10:38.736Z,26.00
2019-05-15T15:13:13.752Z,25.80
2019-05-15T15:15:42.556Z,26.40
2019-05-15T15:18:20.024Z,25.60
2019-05-15T15:20:48.680Z,24.30
2019-05-15T15:23:17.500Z,23.70
2019-05-15T15:25:48.259Z,25.00
2019-05-15T15:28:18.846Z,26.20
2019-05-15T15:30:48.643Z,26.50
2019-05-15T15:33:17.612Z,26.30
2019-05-15T15:35:48.559Z,26.30
2019-05-15T15:38:19.029Z,26.40
2019-05-15T15:40:48.114Z,26.10
2019-05-15T15:43:17.017Z,25.30
2019-05-15T15:45:48.268Z,25.00
2019-05-15T15:48:16.217Z,24.90
2019-05-15T15:50:45.283Z,25.30
2019-05-15T15:53:13.997Z,25.60
2019-05-15T15:55:42.819Z,25.00
2019-05-15T15:58:11.462Z,25.50
2019-05-15T16:00:43.469Z,25.50
2019-05-15T16:03:14.754Z,26.20
2019-05-15T16:05:43.445Z,26.20
2019-05-15T16:08:12.087Z,26.20
2019-05-15T16:10:40.977Z,26.00
2019-05-15T16:13:09.758Z,25.70
2019-05-15T16:15:39.582Z,25.10
2019-05-15T16:18:08.838Z,24.00
2019-05-15T16:20:39.652Z,23.60
2019-05-15T16:23:08.680Z,22.90
2019-05-15T16:25:38.425Z,23.00
2019-05-15T16:28:10.537Z,23.10
2019-05-15T16:30:50.431Z,23.70
2019-05-15T16:33:10.037Z,23.10
2019-05-15T16:35:39.352Z,21.90
2019-05-15T16:38:09.285Z,21.30
2019-05-15T16:40:38.594Z,20.40
2019-05-15T16:43:07.510Z,19.80
2019-05-15T16:45:38.490Z,19.50
2019-05-15T16:48:09.227Z,19.10
2019-05-15T16:50:38.181Z,18.60
2019-05-15T16:53:09.196Z,18.40
2019-05-15T16:55:37.906Z,18.30
2019-05-15T16:58:09.320Z,18.10
2019-05-15T17:00:38.409Z,17.60
2019-05-15T17:03:14.293Z,17.40
2019-05-15T17:05:40.399Z,17.20
2019-05-15T17:08:09.345Z,17.00
2019-05-15T17:10:38.789Z,17.10
2019-05-15T17:13:08.690Z,17.20
2019-05-15T17:15:38.459Z,17.50
2019-05-15T17:18:09.014Z,17.60
2019-05-15T17:20:37.829Z,17.80
2019-05-15T17:23:08.664Z,17.60
2019-05-15T17:25:38.945Z,17.50
2019-05-15T17:28:09.107Z,17.50
2019-05-15T17:30:38.391Z,17.40
2019-05-15T17:33:07.338Z,17.40
2019-05-15T17:35:38.082Z,17.50
2019-05-15T17:38:09.873Z,17.50
2019-05-15T17:40:38.550Z,17.30
2019-05-15T17:43:09.383Z,17.30
2019-05-15T17:45:39.017Z,17.40
2019-05-15T17:48:08.949Z,17.30
2019-05-15T17:50:48.515Z,17.30
2019-05-15T17:53:08.766Z,16.90
2019-05-15T17:55:38.420Z,16.90
2019-05-15T17:58:09.236Z,16.50
2019-05-15T18:00:39.350Z,16.60
2019-05-15T18:03:09.857Z,16.60
2019-05-15T18:05:39.186Z,16.30
2019-05-15T18:08:08.825Z,16.20
2019-05-15T18:10:38.438Z,16.10
2019-05-15T18:13:08.893Z,16.20
2019-05-15T18:15:38.540Z,16.10
2019-05-15T18:18:09.488Z,16.10
2019-05-15T18:20:38.510Z,16.10
2019-05-15T18:23:08.510Z,15.90
2019-05-15T18:25:38.423Z,15.80
2019-05-15T18:28:08.593Z,15.70
2019-05-15T18:30:38.847Z,15.50
2019-05-15T18:33:09.426Z,15.50
2019-05-15T18:35:38.692Z,15.50
2019-05-15T18:38:08.633Z,15.40
2019-05-15T18:40:38.397Z,15.20
2019-05-15T18:43:10.032Z,15.10
2019-05-15T18:45:38.290Z,15.10
2019-05-15T18:48:07.221Z,15.10
2019-05-15T18:50:37.818Z,15.10
2019-05-15T18:53:09.029Z,15.00
2019-05-15T18:55:38.626Z,14.90
2019-05-15T18:58:08.728Z,14.80
2019-05-15T19:00:39.919Z,14.90
2019-05-15T19:03:19.091Z,14.80
2019-05-15T19:05:38.791Z,14.70
2019-05-15T19:08:08.375Z,14.60
2019-05-15T19:10:38.654Z,14.60
2019-05-15T19:13:08.518Z,14.60
2019-05-15T19:15:38.076Z,14.60
2019-05-15T19:18:08.012Z,14.60
2019-05-15T19:20:38.838Z,14.60
2019-05-15T19:23:07.990Z,14.60
2019-05-15T19:25:37.020Z,14.60
2019-05-15T19:28:08.231Z,14.40
2019-05-15T19:30:36.162Z,14.40
2019-05-15T19:33:07.878Z,14.30
2019-05-15T19:35:38.731Z,14.20
2019-05-15T19:38:07.202Z,14.30
2019-05-15T19:40:35.871Z,14.20
2019-05-15T19:43:04.638Z,14.10
2019-05-15T19:45:33.450Z,14.20
2019-05-15T19:48:02.511Z,14.20
2019-05-15T19:50:31.314Z,14.20
2019-05-15T19:52:59.978Z,14.20
2019-05-15T19:55:28.802Z,14.20
2019-05-15T19:57:58.781Z,14.10
2019-05-15T20:00:28.526Z,14.00
2019-05-15T20:02:58.181Z,14.00
2019-05-15T20:05:28.956Z,13.90
2019-05-15T20:07:58.922Z,13.70
2019-05-15T20:10:29.259Z,13.60
2019-05-15T20:12:59.675Z,13.70
2019-05-15T20:15:28.816Z,13.60
2019-05-15T20:17:57.973Z,13.60
2019-05-15T20:20:28.428Z,13.50
2019-05-15T20:22:59.816Z,13.50
2019-05-15T20:25:28.153Z,13.50
2019-05-15T20:27:56.892Z,13.40
2019-05-15T20:30:25.695Z,13.40
2019-05-15T20:32:54.433Z,13.30
2019-05-15T20:35:23.116Z,13.20
2019-05-15T20:37:52.025Z,13.30
2019-05-15T20:40:20.845Z,13.20
2019-05-15T20:42:49.564Z,13.10
2019-05-15T20:45:18.700Z,13.00
2019-05-15T20:47:47.441Z,12.90
2019-05-15T20:50:19.054Z,12.90
2019-05-15T20:52:48.734Z,12.80
2019-05-15T20:55:17.090Z,12.80
2019-05-15T20:57:49.790Z,12.70
2019-05-15T21:00:19.158Z,12.70
2019-05-15T21:02:48.617Z,12.60
2019-05-15T21:05:18.603Z,12.50
2019-05-15T21:07:48.584Z,12.60
2019-05-15T21:10:21.124Z,12.60
2019-05-15T21:12:49.360Z,12.60
2019-05-15T21:15:21.513Z,12.70
2019-05-15T21:17:57.854Z,12.70
2019-05-15T21:20:21.270Z,12.60
2019-05-15T21:22:49.951Z,12.60
2019-05-15T21:25:19.654Z,12.60
2019-05-15T21:27:49.093Z,12.60
2019-05-15T21:30:19.055Z,12.60
2019-05-15T21:32:49.385Z,12.60
2019-05-15T21:35:18.552Z,12.50
2019-05-15T21:37:48.901Z,12.40
2019-05-15T21:40:17.756Z,12.30
2019-05-15T21:42:49.126Z,12.30
2019-05-15T21:45:18.341Z,12.20
2019-05-15T21:47:47.290Z,12.10
2019-05-15T21:50:19.082Z,12.20
2019-05-15T21:52:49.120Z,12.10
2019-05-15T21:55:18.620Z,12.20
2019-05-15T21:57:47.735Z,12.30
2019-05-15T22:00:19.605Z,12.30
2019-05-15T22:02:49.324Z,12.20
2019-05-15T22:05:19.296Z,12.10
2019-05-15T22:07:51.208Z,12.00
2019-05-15T22:10:19.657Z,12.10
2019-05-15T22:12:48.636Z,12.20
2019-05-15T22:15:18.992Z,12.20
2019-05-15T22:17:49.307Z,12.10
2019-05-15T22:20:19.003Z,12.10
2019-05-15T22:22:50.293Z,12.10
2019-05-15T22:25:19.279Z,12.10
2019-05-15T22:27:48.622Z,12.30
2019-05-15T22:30:18.427Z,12.40
2019-05-15T22:32:49.517Z,12.50
2019-05-15T22:35:18.876Z,12.40
2019-05-15T22:37:49.249Z,12.30
2019-05-15T22:40:18.950Z,12.20
2019-05-15T22:42:48.573Z,12.10
2019-05-15T22:45:18.639Z,12.10
2019-05-15T22:47:48.366Z,12.10
2019-05-15T22:50:19.062Z,12.10
2019-05-15T22:52:49.216Z,12.10
2019-05-15T22:55:18.533Z,12.10
2019-05-15T22:57:48.081Z,12.10
2019-05-15T23:00:17.742Z,12.00
2019-05-15T23:02:48.906Z,12.00
2019-05-15T23:05:26.923Z,12.10
2019-05-15T23:07:48.166Z,12.00
2019-05-15T23:10:17.326Z,11.90
2019-05-15T23:12:46.050Z,11.80
2019-05-15T23:15:14.875Z,11.80
2019-05-15T23:17:43.550Z,11.80
2019-05-15T23:20:12.746Z,11.70
2019-05-15T23:22:41.453Z,11.70
2019-05-15T23:25:10.275Z,11.60
2019-05-15T23:27:39.005Z,11.60
2019-05-15T23:30:09.014Z,11.50
2019-05-15T23:32:39.139Z,11.60
2019-05-15T23:35:08.639Z,11.50
2019-05-15T23:37:39.234Z,11.50
2019-05-15T23:40:08.843Z,11.50
2019-05-15T23:42:39.101Z,11.50
2019-05-15T23:45:08.325Z,11.30
2019-05-15T23:47:38.473Z,11.20
2019-05-15T23:50:07.624Z,11.30
2019-05-15T23:52:38.360Z,11.40
2019-05-15T23:55:08.661Z,11.40
2019-05-15T23:57:39.231Z,11.30
